Time;durP1;ratioP1;P1;durP2;ratioP2;P2;SDS_P1;SDS_P2;PMS_P1;PMS_P2;Temp;Humidity;BMP_temperature;BMP_pressure;BME280_temperature;BME280_humidity;BME280_pressure;Samples;Min_cycle;Max_cycle;Signal;HPM_P1;HPM_P2
2021/01/14 00:02:24;;;;;;;17.90;4.15;;;;;;;3.22;82.30;101812.41;5089461;28;20027;-80
2021/01/14 00:04:51;;;;;;;17.95;3.45;;;;;;;3.21;82.63;101815.22;5089894;28;20460;-80
2021/01/14 00:07:16;;;;;;;21.05;3.72;;;;;;;3.21;82.26;101813.38;5095983;28;20111;-80
2021/01/14 00:09:42;;;;;;;18.02;3.75;;;;;;;3.18;82.02;101808.38;5097530;28;20055;-80
2021/01/14 00:12:07;;;;;;;19.70;2.60;;;;;;;3.18;81.91;101805.72;5096996;28;20020;-80
2021/01/14 00:14:33;;;;;;;12.00;2.87;;;;;;;3.17;80.88;101808.50;5096742;28;20035;-80
2021/01/14 00:16:58;;;;;;;18.90;2.77;;;;;;;3.16;81.60;101813.03;5097415;28;20055;-80
2021/01/14 00:19:23;;;;;;;12.80;2.53;;;;;;;3.16;80.10;101820.22;5097280;28;20051;-81
2021/01/14 00:21:49;;;;;;;23.70;3.60;;;;;;;3.15;80.37;101821.22;5097230;28;20024;-80
2021/01/14 00:24:14;;;;;;;24.03;3.80;;;;;;;3.12;80.36;101826.88;5095545;28;20107;-80
2021/01/14 00:26:40;;;;;;;13.70;3.37;;;;;;;3.08;79.94;101823.69;5097125;28;20020;-80
2021/01/14 00:29:06;;;;;;;21.05;2.67;;;;;;;3.10;77.02;101827.03;5097000;28;20471;-81
2021/01/14 00:31:31;;;;;;;16.73;2.55;;;;;;;3.08;76.89;101826.38;5095522;28;20032;-80
2021/01/14 00:33:57;;;;;;;10.30;2.27;;;;;;;3.05;77.74;101821.31;5096704;28;20131;-80
2021/01/14 00:36:30;;;;;;;13.97;2.77;;;;;;;3.04;76.71;101828.50;5096117;28;20024;-80
2021/01/14 00:39:00;;;;;;;9.32;2.00;;;;;;;2.99;74.32;101825.47;5115700;27;20139;-79
2021/01/14 00:41:27;;;;;;;16.92;2.33;;;;;;;3.01;74.05;101825.31;5094533;28;20080;-80
2021/01/14 00:43:53;;;;;;;14.35;2.97;;;;;;;2.95;73.45;101816.09;5095812;28;20032;-80
2021/01/14 00:46:19;;;;;;;17.63;2.60;;;;;;;2.92;74.03;101812.88;5095349;28;20397;-80
2021/01/14 00:48:45;;;;;;;;;;;;;;;2.95;74.98;101813.41;5096503;28;20019;-80
2021/01/14 00:51:10;;;;;;;14.83;2.80;;;;;;;2.89;75.17;101814.03;5096380;28;19964;-80
2021/01/14 00:53:39;;;;;;;20.13;2.53;;;;;;;2.89;74.36;101815.88;5096276;28;20851;-81
2021/01/14 00:56:05;;;;;;;16.73;2.13;;;;;;;2.83;74.44;101795.94;5094191;28;20036;-80
2021/01/14 00:58:33;;;;;;;16.02;2.90;;;;;;;2.81;74.13;101796.13;5094917;28;20122;-80
2021/01/14 01:00:59;;;;;;;16.08;2.65;;;;;;;2.83;73.97;101806.63;5098297;28;20020;-80
2021/01/14 01:03:24;;;;;;;13.77;2.23;;;;;;;2.82;73.37;101813.81;5095931;28;20444;-80
2021/01/14 01:05:49;;;;;;;14.47;2.83;;;;;;;2.82;73.24;101810.31;5095885;28;20019;-80
2021/01/14 01:08:14;;;;;;;15.77;2.30;;;;;;;2.76;73.55;101809.09;5093512;28;20131;-80
2021/01/14 01:10:40;;;;;;;13.40;2.17;;;;;;;2.73;74.31;101814.78;5094657;28;20644;-80
2021/01/14 01:13:05;;;;;;;13.03;2.57;;;;;;;2.71;73.58;101808.75;5093875;28;20400;-81
2021/01/14 01:15:31;;;;;;;12.97;2.07;;;;;;;2.76;73.93;101826.97;5096124;28;20107;-81
2021/01/14 01:17:56;;;;;;;13.90;2.30;;;;;;;2.68;74.53;101819.72;5121461;27;20024;-81
2021/01/14 01:20:21;;;;;;;15.10;3.60;;;;;;;2.72;73.96;101830.94;5095341;28;20046;-80
2021/01/14 01:22:47;;;;;;;9.13;1.63;;;;;;;2.69;72.89;101816.09;5127989;27;20139;-80
2021/01/14 01:25:13;;;;;;;13.77;2.37;;;;;;;2.71;68.78;101822.09;5094024;28;20302;-80
2021/01/14 01:27:38;;;;;;;7.88;1.88;;;;;;;2.68;69.02;101825.06;5127495;27;20024;-80
2021/01/14 01:30:08;;;;;;;12.30;1.77;;;;;;;2.67;70.07;101834.06;5094952;28;20020;-80
2021/01/14 01:32:34;;;;;;;14.80;2.13;;;;;;;2.68;68.66;101833.06;5094783;28;20115;-80
2021/01/14 01:34:59;;;;;;;18.57;2.33;;;;;;;2.63;68.02;101838.03;5094828;28;20135;-81
2021/01/14 01:37:25;;;;;;;11.53;2.53;;;;;;;2.63;65.33;101831.88;5094822;28;20044;-80
2021/01/14 01:39:50;;;;;;;16.30;2.00;;;;;;;2.62;66.19;101839.03;5094215;28;20656;-80
2021/01/14 01:42:15;;;;;;;17.53;2.07;;;;;;;2.60;66.67;101849.06;5095937;28;20357;-80
2021/01/14 01:44:42;;;;;;;16.10;1.70;;;;;;;2.60;63.53;101843.72;5096262;28;20429;-80
2021/01/14 01:47:08;;;;;;;9.68;2.13;;;;;;;2.57;64.63;101833.34;5094859;28;20016;-80
2021/01/14 01:49:35;;;;;;;11.50;2.22;;;;;;;2.56;63.34;101831.66;5094430;28;20024;-80
2021/01/14 01:52:03;;;;;;;13.50;1.67;;;;;;;2.51;66.14;101841.97;5095814;28;20032;-80
2021/01/14 01:54:30;;;;;;;10.20;2.03;;;;;;;2.55;63.31;101851.34;5095800;28;20035;-80
2021/01/14 01:56:56;;;;;;;9.02;1.52;;;;;;;2.51;65.61;101856.16;5094790;28;20036;-80
2021/01/14 01:59:23;;;;;;;8.70;1.83;;;;;;;2.50;63.96;101864.31;5094273;28;20043;-80
2021/01/14 02:01:48;;;;;;;;;;;;;;;2.52;66.09;101865.84;5095284;28;20035;-81
2021/01/14 02:04:13;;;;;;;13.70;2.27;;;;;;;2.41;67.83;101870.56;5094785;28;20209;-81
2021/01/14 02:06:50;;;;;;;7.43;1.47;;;;;;;2.40;68.89;101883.09;5128547;28;20320;-81
2021/01/14 02:09:18;;;;;;;13.65;2.17;;;;;;;2.39;67.55;101900.09;5097711;28;20028;-81
2021/01/14 02:11:49;;;;;;;14.18;1.98;;;;;;;2.40;69.39;101904.44;5098188;28;20123;-81
2021/01/14 02:14:25;;;;;;;11.65;1.80;;;;;;;2.38;67.11;101895.72;5098545;28;20036;-81
2021/01/14 02:16:52;;;;;;;;;;;;;;;2.41;68.77;101892.75;5099306;28;20314;-81
2021/01/14 02:19:32;;;;;;;8.48;1.48;;;;;;;2.33;67.21;101890.84;5098346;28;19957;-81
2021/01/14 02:22:13;;;;;;;11.30;2.28;;;;;;;2.26;68.61;101891.63;5120270;27;20036;-80
2021/01/14 02:24:54;;;;;;;12.57;2.00;;;;;;;2.24;69.59;101896.25;5098391;28;20032;-81
2021/01/14 02:27:21;;;;;;;13.80;2.38;;;;;;;2.18;72.75;101896.84;5098588;28;20429;-81
2021/01/14 02:29:49;;;;;;;12.60;2.15;;;;;;;2.22;71.75;101907.09;5097870;28;20034;-81
2021/01/14 02:32:16;;;;;;;12.38;2.33;;;;;;;2.17;70.73;101900.53;5098401;28;20097;-81
2021/01/14 02:34:41;;;;;;;10.50;2.20;;;;;;;2.16;74.67;101912.19;5097593;28;20425;-81
2021/01/14 02:37:06;;;;;;;8.03;1.77;;;;;;;2.12;70.93;101908.13;5098154;28;20026;-81
2021/01/14 02:39:32;;;;;;;13.43;2.10;;;;;;;2.06;72.72;101899.75;5122491;27;20055;-81
2021/01/14 02:41:57;;;;;;;10.30;1.90;;;;;;;2.04;72.70;101906.19;5095817;28;20067;-81
2021/01/14 02:44:22;;;;;;;18.00;2.00;;;;;;;2.05;72.79;101911.41;5097703;28;20028;-81
2021/01/14 02:46:48;;;;;;;6.17;1.60;;;;;;;1.97;72.87;101900.63;5098983;28;20061;-81
2021/01/14 02:49:15;;;;;;;8.87;1.60;;;;;;;2.04;75.82;101912.38;5097748;28;20040;-81
2021/01/14 02:51:42;;;;;;;10.77;2.13;;;;;;;2.00;75.03;101918.16;5098003;28;20116;-80
2021/01/14 02:54:09;;;;;;;7.88;1.92;;;;;;;2.00;75.64;101916.34;5098545;28;20020;-81
2021/01/14 02:56:37;;;;;;;12.45;1.90;;;;;;;1.99;72.89;101925.31;5099124;28;20031;-81
2021/01/14 02:59:03;;;;;;;8.00;1.67;;;;;;;1.93;76.51;101919.75;5098424;28;20035;-81
2021/01/14 03:01:28;;;;;;;11.93;1.70;;;;;;;1.95;73.92;101928.44;5098944;28;20024;-81
2021/01/14 03:03:54;;;;;;;14.60;2.10;;;;;;;1.85;76.47;101912.47;5098603;28;20485;-81
2021/01/14 03:06:19;;;;;;;11.50;1.67;;;;;;;1.88;78.00;101922.88;5098579;28;20032;-81
2021/01/14 03:08:46;;;;;;;9.60;1.70;;;;;;;1.88;76.52;101922.03;5096918;28;20032;-81
2021/01/14 03:11:12;;;;;;;10.68;2.05;;;;;;;1.90;72.51;101926.22;5097293;28;20036;-81
2021/01/14 03:13:38;;;;;;;12.32;2.30;;;;;;;1.85;77.45;101922.31;5098496;28;20031;-80
2021/01/14 03:16:06;;;;;;;8.70;1.88;;;;;;;1.72;77.55;101925.34;5095707;28;20123;-81
2021/01/14 03:18:31;;;;;;;8.80;1.77;;;;;;;1.78;75.38;101925.56;5097494;28;20024;-81
2021/01/14 03:20:57;;;;;;;6.80;1.63;;;;;;;1.71;77.31;101927.16;5097950;28;20032;-81
2021/01/14 03:23:24;;;;;;;11.00;2.30;;;;;;;1.67;77.99;101925.78;5098498;28;20026;-81
2021/01/14 03:25:50;;;;;;;9.50;1.85;;;;;;;1.57;77.45;101914.31;5097828;28;20402;-81
2021/01/14 03:28:15;;;;;;;8.97;2.10;;;;;;;1.58;76.26;101918.63;5098329;28;20051;-81
2021/01/14 03:30:40;;;;;;;16.40;2.80;;;;;;;1.62;78.15;101916.53;5098088;28;20028;-81
2021/01/14 03:33:09;;;;;;;12.03;2.20;;;;;;;1.62;80.07;101928.03;5130717;27;20035;-81
2021/01/14 03:35:34;;;;;;;7.53;2.10;;;;;;;1.63;77.86;101929.72;5097792;28;20036;-81
2021/01/14 03:37:59;;;;;;;9.33;1.63;;;;;;;1.55;79.97;101929.59;5098123;28;20046;-81
2021/01/14 03:40:25;;;;;;;9.73;2.20;;;;;;;1.43;80.12;101930.75;5097809;28;20039;-81
2021/01/14 03:42:50;;;;;;;7.60;1.80;;;;;;;1.48;80.82;101924.00;5098203;28;20028;-81
2021/01/14 03:45:22;;;;;;;8.37;1.60;;;;;;;1.51;80.58;101938.84;5096737;28;20036;-81
2021/01/14 03:47:47;;;;;;;12.20;1.83;;;;;;;1.47;81.31;101927.66;5096679;28;20040;-81
2021/01/14 03:50:13;;;;;;;9.70;1.80;;;;;;;1.48;80.69;101936.50;5095624;28;20051;-81
2021/01/14 03:52:38;;;;;;;14.57;2.40;;;;;;;1.45;80.34;101920.78;5096961;28;20020;-81
2021/01/14 03:55:07;;;;;;;6.10;1.40;;;;;;;1.48;80.00;101924.00;5120487;27;20046;-81
2021/01/14 03:57:36;;;;;;;9.40;1.92;;;;;;;1.44;80.24;101922.63;5095493;28;20028;-81
2021/01/14 04:00:06;;;;;;;13.82;2.35;;;;;;;1.46;81.13;101923.28;5088385;28;20314;-82
2021/01/14 04:02:34;;;;;;;9.13;2.25;;;;;;;1.39;81.81;101919.53;5096643;28;20035;-81
2021/01/14 04:05:00;;;;;;;14.13;2.53;;;;;;;1.40;80.53;101913.22;5096424;28;20074;-81
2021/01/14 04:07:25;;;;;;;13.80;2.30;;;;;;;1.46;80.57;101911.78;5096771;28;20068;-80
2021/01/14 04:09:50;;;;;;;11.27;2.37;;;;;;;1.33;80.56;101917.47;5096000;28;20023;-81
2021/01/14 04:12:16;;;;;;;14.43;2.10;;;;;;;1.42;78.28;101926.41;5096319;28;20103;-81
2021/01/14 04:14:50;;;;;;;7.70;1.93;;;;;;;1.51;78.07;101920.19;5097468;28;20035;-81
2021/01/14 04:17:16;;;;;;;8.93;1.98;;;;;;;1.47;78.90;101917.00;5097485;28;20020;-81
2021/01/14 04:19:46;;;;;;;13.80;2.38;;;;;;;1.51;81.41;101925.53;5095774;28;20047;-81
2021/01/14 04:22:26;;;;;;;13.02;2.20;;;;;;;1.48;81.50;101921.34;5096031;28;20058;-81
2021/01/14 04:24:52;;;;;;;11.10;2.30;;;;;;;1.48;81.16;101921.34;5110940;27;20094;-80
2021/01/14 04:27:17;;;;;;;11.23;2.40;;;;;;;1.49;80.75;101917.69;5087465;28;20692;-80
2021/01/14 04:29:43;;;;;;;13.30;2.63;;;;;;;1.49;80.14;101927.50;5095649;28;20490;-81
2021/01/14 04:32:08;;;;;;;12.30;2.53;;;;;;;1.51;80.08;101933.53;5101413;28;20054;-81
2021/01/14 04:34:33;;;;;;;17.13;3.03;;;;;;;1.54;79.55;101938.56;5129215;27;20119;-81
2021/01/14 04:37:00;;;;;;;8.13;2.63;;;;;;;1.54;79.81;101938.56;5095405;28;20421;-81
2021/01/14 04:39:26;;;;;;;8.55;2.15;;;;;;;1.54;77.98;101944.75;5096027;28;20031;-81
2021/01/14 04:41:57;;;;;;;13.68;2.97;;;;;;;1.58;78.35;101942.63;5095856;28;20383;-81
2021/01/14 04:44:26;;;;;;;9.85;2.08;;;;;;;1.50;81.41;101939.84;5097016;28;20081;-81
2021/01/14 04:47:03;;;;;;;12.95;2.40;;;;;;;1.50;81.08;101930.03;5096523;28;20031;-81
2021/01/14 04:49:30;;;;;;;10.65;2.00;;;;;;;1.41;81.39;101924.72;5096955;28;20407;-80
2021/01/14 04:52:03;;;;;;;13.75;2.63;;;;;;;1.46;79.46;101919.78;5095093;28;20047;-80
2021/01/14 04:54:34;;;;;;;9.55;2.40;;;;;;;1.43;80.45;101936.09;5096831;28;20078;-81
2021/01/14 04:57:04;;;;;;;15.23;2.50;;;;;;;1.45;80.16;101939.44;5096510;28;20027;-80
2021/01/14 04:59:38;;;;;;;11.32;1.95;;;;;;;1.43;77.42;101936.94;5112774;28;20074;-81
2021/01/14 05:02:07;;;;;;;11.90;2.13;;;;;;;1.39;78.04;101932.03;5093165;28;20366;-81
2021/01/14 05:04:39;;;;;;;12.65;2.28;;;;;;;1.38;81.43;101944.53;5083988;28;20027;-81
2021/01/14 05:07:09;;;;;;;11.43;1.90;;;;;;;1.31;80.84;101937.22;5093575;28;20030;-80
2021/01/14 05:09:41;;;;;;;10.48;1.70;;;;;;;1.31;78.65;101943.41;5083865;28;20032;-81
2021/01/14 05:12:07;;;;;;;6.60;1.88;;;;;;;1.31;80.27;101939.91;5094878;28;20047;-80
2021/01/14 05:14:33;;;;;;;8.80;1.98;;;;;;;1.36;78.21;101953.63;5081733;28;20063;-81
2021/01/14 05:16:58;;;;;;;8.20;1.90;;;;;;;1.36;80.16;101950.97;5094964;28;20118;-81
2021/01/14 05:19:24;;;;;;;14.40;2.53;;;;;;;1.32;78.76;101947.78;5095358;28;20030;-80
2021/01/14 05:21:51;;;;;;;9.37;1.97;;;;;;;1.36;78.87;101949.13;5095357;28;20023;-81
2021/01/14 05:24:16;;;;;;;11.65;3.10;;;;;;;1.36;77.77;101958.97;5093103;28;20414;-81
2021/01/14 05:26:43;;;;;;;10.80;2.13;;;;;;;1.27;82.11;101955.34;5095189;28;20039;-81
2021/01/14 05:29:17;;;;;;;16.30;2.03;;;;;;;1.32;79.06;101960.22;5094979;28;20320;-80
2021/01/14 05:31:47;;;;;;;8.48;2.40;;;;;;;1.31;80.18;101961.22;5082049;28;20031;-81
2021/01/14 05:34:14;;;;;;;17.70;2.88;;;;;;;1.29;81.27;101956.88;5095802;28;20020;-80
2021/01/14 05:37:05;;;;;;;6.47;1.83;;;;;;;1.32;80.99;101962.88;5094743;28;20123;-81
2021/01/14 05:39:42;;;;;;;10.15;2.13;;;;;;;1.25;81.82;101967.97;5090759;28;20425;-80
2021/01/14 05:42:11;;;;;;;10.65;1.67;;;;;;;1.14;83.26;101970.78;5096117;28;20028;-81
2021/01/14 05:44:39;;;;;;;11.93;2.22;;;;;;;1.13;82.07;101969.13;5095282;28;20020;-80
2021/01/14 05:47:18;;;;;;;11.30;2.45;;;;;;;1.15;79.03;101967.13;5096096;28;20020;-80
2021/01/14 05:50:07;;;;;;;8.00;2.40;;;;;;;1.23;79.20;101973.44;5128780;28;20027;-80
2021/01/14 05:52:33;;;;;;;8.80;2.10;;;;;;;1.12;82.59;101983.38;5007949;28;20054;-81
2021/01/14 05:55:03;;;;;;;8.18;2.10;;;;;;;1.15;81.51;101972.47;5016083;28;20510;-81
2021/01/14 05:57:31;;;;;;;10.45;2.42;;;;;;;1.17;81.67;101971.34;5017353;28;20045;-81
2021/01/14 06:00:07;;;;;;;7.32;1.70;;;;;;;1.15;80.66;101969.81;5013377;28;20088;-81
2021/01/14 06:02:33;;;;;;;11.70;1.80;;;;;;;1.11;80.20;101977.22;5014266;28;20033;-81
2021/01/14 06:04:59;;;;;;;10.27;2.27;;;;;;;1.12;81.30;101975.41;5026174;28;20034;-81
2021/01/14 06:07:40;;;;;;;10.68;2.13;;;;;;;1.08;81.28;101984.69;5024702;28;20084;-81
2021/01/14 06:10:07;;;;;;;12.18;2.42;;;;;;;0.95;81.11;101982.28;4997775;28;20037;-80
2021/01/14 06:12:32;;;;;;;9.23;2.13;;;;;;;1.08;81.72;101990.84;5014305;28;20129;-80
2021/01/14 06:14:58;;;;;;;10.40;2.57;;;;;;;0.97;81.89;101983.81;5023106;28;20120;-81
2021/01/14 06:17:33;;;;;;;11.97;2.10;;;;;;;1.07;80.66;101999.78;5007721;28;20427;-81
2021/01/14 06:20:08;;;;;;;11.05;2.33;;;;;;;1.10;81.57;101996.03;5022717;28;20026;-81
2021/01/14 06:22:36;;;;;;;10.80;2.80;;;;;;;1.01;83.05;101987.03;5014430;28;20035;-81
2021/01/14 06:25:05;;;;;;;17.77;2.33;;;;;;;1.02;81.78;101994.91;5020759;28;20052;-80
2021/01/14 06:27:31;;;;;;;14.48;3.03;;;;;;;1.03;82.41;101985.09;5011429;28;20045;-81
2021/01/14 06:30:04;;;;;;;8.52;2.03;;;;;;;1.07;81.98;101990.97;5060212;28;20036;-80
2021/01/14 06:32:30;;;;;;;11.18;2.15;;;;;;;1.00;83.03;101986.22;5095396;28;20434;-81
2021/01/14 06:34:55;;;;;;;11.03;2.80;;;;;;;1.05;80.38;101984.94;5095332;28;20056;-81
2021/01/14 06:37:26;;;;;;;15.33;3.10;;;;;;;1.07;79.94;101983.81;5095116;28;20055;-80
2021/01/14 06:39:57;;;;;;;14.50;2.60;;;;;;;1.11;80.37;101995.88;5092290;28;20109;-80
2021/01/14 06:42:34;;;;;;;14.52;3.30;;;;;;;1.10;81.00;101996.88;5095654;28;20032;-81
2021/01/14 06:45:07;;;;;;;8.25;2.40;;;;;;;1.12;78.75;101997.56;5095197;28;20043;-80
2021/01/14 06:47:41;;;;;;;14.55;2.85;;;;;;;1.10;79.58;101999.53;5094106;28;20047;-80
2021/01/14 06:50:16;;;;;;;13.73;3.30;;;;;;;1.10;78.82;101998.69;5095066;28;20099;-77
2021/01/14 06:52:42;;;;;;;13.73;2.55;;;;;;;1.09;78.67;102003.19;5095130;28;20405;-81
2021/01/14 06:55:09;;;;;;;8.60;2.25;;;;;;;1.09;79.70;102007.66;5095495;28;20035;-83
2021/01/14 06:57:35;;;;;;;8.50;2.38;;;;;;;1.05;80.70;102011.59;5097602;28;20130;-81
2021/01/14 07:00:03;;;;;;;;;;;;;;;1.12;80.06;102015.34;5099005;28;20073;-80
2021/01/14 07:02:34;;;;;;;13.07;1.85;;;;;;;1.05;77.92;102003.59;5102965;28;19912;-80
2021/01/14 07:05:06;;;;;;;7.93;2.05;;;;;;;1.06;78.13;102006.13;5092774;28;20033;-81
2021/01/14 07:08:04;;;;;;;14.32;2.50;;;;;;;1.08;78.86;102016.66;5090286;28;20470;-82
2021/01/14 07:10:31;;;;;;;;;;;;;;;1.14;79.13;102021.41;5098034;28;20072;-79
2021/01/14 07:13:07;;;;;;;23.07;3.77;;;;;;;1.09;78.54;102021.00;5129614;27;20343;-80
2021/01/14 07:15:41;;;;;;;13.38;2.90;;;;;;;1.00;80.16;102023.50;5094916;28;20176;-81
2021/01/14 07:18:17;;;;;;;12.07;2.13;;;;;;;1.07;77.94;102022.94;5093220;28;20020;-79
2021/01/14 07:20:48;;;;;;;12.32;3.03;;;;;;;1.05;78.91;102024.91;5094140;28;20059;-83
2021/01/14 07:23:14;;;;;;;16.95;3.03;;;;;;;1.11;76.75;102035.00;5083001;28;20037;-82
2021/01/14 07:25:39;;;;;;;7.63;2.45;;;;;;;1.13;77.72;102036.56;5094508;28;20050;-80
2021/01/14 07:28:05;;;;;;;13.93;2.77;;;;;;;1.09;76.04;102028.97;5098343;28;20129;-83
2021/01/14 07:30:30;;;;;;;8.87;2.50;;;;;;;1.11;75.80;102024.34;5098092;28;20432;-82
2021/01/14 07:33:06;;;;;;;13.40;2.50;;;;;;;1.14;76.27;102032.91;5097125;28;20099;-81
2021/01/14 07:35:42;;;;;;;14.43;2.78;;;;;;;1.10;76.84;102028.84;5095628;28;20060;-80
2021/01/14 07:38:12;;;;;;;8.70;3.20;;;;;;;1.10;75.56;102028.84;5098146;28;20356;-80
2021/01/14 07:40:39;;;;;;;15.75;3.15;;;;;;;1.07;75.00;102029.09;5096824;28;20119;-80
2021/01/14 07:43:07;;;;;;;9.27;2.75;;;;;;;1.12;75.78;102031.34;5096098;28;20094;-82
2021/01/14 07:45:33;;;;;;;14.73;3.03;;;;;;;1.05;75.09;102030.25;5096482;28;20513;-79
2021/01/14 07:48:21;;;;;;;18.15;2.58;;;;;;;1.08;74.70;102030.81;5096606;28;20077;-80
2021/01/14 07:50:51;;;;;;;13.60;2.45;;;;;;;0.98;74.08;102025.47;5110459;28;20055;-79
2021/01/14 07:53:18;;;;;;;9.10;2.10;;;;;;;1.02;74.77;102031.34;5127886;27;20467;-82
2021/01/14 07:55:43;;;;;;;17.02;2.38;;;;;;;1.07;75.21;102039.75;5097134;28;20348;-83
2021/01/14 07:58:12;;;;;;;8.57;1.92;;;;;;;1.07;75.30;102034.44;5110028;28;20062;-78
2021/01/14 08:00:39;;;;;;;13.95;2.25;;;;;;;1.04;75.22;102040.06;5090295;28;20082;-79
2021/01/14 08:03:15;;;;;;;13.73;1.88;;;;;;;1.07;74.94;102038.91;5096323;28;20042;-79
2021/01/14 08:05:56;;;;;;;12.67;2.37;;;;;;;1.11;73.85;102054.50;5096639;28;20111;-79
2021/01/14 08:08:28;;;;;;;13.00;2.25;;;;;;;1.12;74.50;102058.00;5097405;28;20282;-80
2021/01/14 08:11:08;;;;;;;13.70;2.15;;;;;;;1.12;74.80;102061.50;5090272;28;20320;-79
2021/01/14 08:14:04;;;;;;;17.65;2.50;;;;;;;1.13;74.62;102063.19;5096809;28;20047;-78
2021/01/14 08:16:37;;;;;;;11.23;2.10;;;;;;;1.14;74.20;102067.53;5090837;28;20143;-79
2021/01/14 08:19:19;;;;;;;10.57;2.20;;;;;;;1.10;74.07;102063.47;5096662;28;20031;-80
2021/01/14 08:22:02;;;;;;;9.05;2.78;;;;;;;1.14;73.72;102077.34;5097220;28;20095;-78
2021/01/14 08:24:50;;;;;;;6.93;2.10;;;;;;;1.15;73.83;102085.19;5096682;28;20130;-79
2021/01/14 08:27:37;;;;;;;12.32;1.95;;;;;;;1.16;73.88;102086.88;5097393;28;20050;-78
2021/01/14 08:30:12;;;;;;;12.40;2.33;;;;;;;1.17;74.74;102080.59;5097232;28;20490;-78
2021/01/14 08:32:50;;;;;;;7.15;1.75;;;;;;;1.17;74.51;102088.59;5097178;28;20028;-78
2021/01/14 08:35:26;;;;;;;8.30;2.03;;;;;;;1.16;73.21;102086.88;5096733;28;20044;-78
2021/01/14 08:37:56;;;;;;;8.70;2.10;;;;;;;1.18;74.90;102095.59;5096917;28;20104;-78
2021/01/14 08:40:34;;;;;;;12.48;2.03;;;;;;;1.18;74.82;102095.59;5097129;28;20023;-79
2021/01/14 08:43:06;;;;;;;9.43;2.20;;;;;;;1.20;75.00;102098.09;5095889;28;20051;-79
2021/01/14 08:45:32;;;;;;;12.07;2.08;;;;;;;1.16;75.56;102091.38;5095620;28;20093;-79
2021/01/14 08:48:12;;;;;;;10.40;2.20;;;;;;;1.21;75.30;102095.28;5096946;28;20103;-77
2021/01/14 08:50:47;;;;;;;13.93;1.98;;;;;;;1.19;73.93;102086.63;5112764;28;20500;-78
2021/01/14 08:53:12;;;;;;;14.73;2.67;;;;;;;1.19;73.67;102096.44;5096745;28;20031;-78
2021/01/14 08:55:50;;;;;;;13.67;2.93;;;;;;;1.19;74.22;102096.44;5095727;28;20114;-78
2021/01/14 08:58:18;;;;;;;12.65;2.72;;;;;;;1.18;74.62;102098.25;5095649;28;20039;-78
2021/01/14 09:00:47;;;;;;;9.93;2.33;;;;;;;1.23;74.17;102104.00;5096743;28;20020;-78
2021/01/14 09:03:12;;;;;;;14.13;3.17;;;;;;;1.23;73.46;102106.69;5096657;28;20024;-79
2021/01/14 09:05:43;;;;;;;10.10;2.27;;;;;;;1.25;74.74;102095.88;5096568;28;20020;-79
2021/01/14 09:08:09;;;;;;;9.50;2.35;;;;;;;1.28;74.24;102111.59;5095187;28;20028;-79
2021/01/14 09:10:42;;;;;;;13.03;2.13;;;;;;;1.29;73.88;102107.94;5096440;28;20020;-78
2021/01/14 09:13:10;;;;;;;9.18;2.90;;;;;;;1.25;74.19;102102.03;5096534;28;20081;-78
2021/01/14 09:15:36;;;;;;;8.73;2.13;;;;;;;1.32;73.16;102106.81;5096383;28;20044;-78
2021/01/14 09:18:01;;;;;;;8.40;2.20;;;;;;;1.33;73.57;102108.50;5095714;28;20067;-78
2021/01/14 09:20:29;;;;;;;18.17;3.93;;;;;;;1.37;72.30;102107.25;5095351;28;20024;-78
2021/01/14 09:22:58;;;;;;;10.02;2.15;;;;;;;1.40;72.45;102112.28;5096521;28;20016;-78
2021/01/14 09:25:34;;;;;;;5.18;2.03;;;;;;;1.40;72.83;102105.13;5096163;28;20321;-78
2021/01/14 09:28:05;;;;;;;13.52;3.05;;;;;;;1.41;72.01;102105.97;5095919;28;20359;-78
2021/01/14 09:30:31;;;;;;;10.50;2.65;;;;;;;1.44;71.18;102109.19;5087681;28;20052;-78
2021/01/14 09:32:58;;;;;;;13.23;2.93;;;;;;;1.47;72.39;102110.75;5095048;28;20083;-78
2021/01/14 09:35:25;;;;;;;11.15;2.55;;;;;;;1.46;70.77;102114.38;5096059;28;20286;-78
2021/01/14 09:37:52;;;;;;;8.60;1.83;;;;;;;1.49;71.62;102124.78;5096093;28;20374;-78
2021/01/14 09:40:18;;;;;;;9.02;2.38;;;;;;;1.50;72.40;102113.97;5095940;28;20047;-78
2021/01/14 09:42:44;;;;;;;6.50;2.10;;;;;;;1.48;71.54;102115.94;5096255;28;20058;-78
2021/01/14 09:45:11;;;;;;;15.60;2.55;;;;;;;1.50;71.62;102129.13;5094898;28;20369;-78
2021/01/14 09:47:37;;;;;;;8.70;2.72;;;;;;;1.50;71.06;102121.13;5096158;28;20030;-78
2021/01/14 09:50:03;;;;;;;14.77;3.88;;;;;;;1.51;71.02;102120.13;5094116;28;20041;-78
2021/01/14 09:52:29;;;;;;;9.75;2.00;;;;;;;1.55;71.69;102124.22;5096040;28;20035;-78
2021/01/14 09:54:56;;;;;;;11.13;1.90;;;;;;;1.58;70.60;102118.59;5095878;28;20474;-78
2021/01/14 09:57:23;;;;;;;7.43;1.92;;;;;;;1.60;71.63;102123.78;5094943;28;20028;-78
2021/01/14 09:59:50;;;;;;;15.50;2.72;;;;;;;1.60;70.88;102118.44;5095872;28;20035;-78
2021/01/14 10:02:24;;;;;;;9.18;1.98;;;;;;;1.63;70.05;102123.50;5094859;28;20016;-78
2021/01/14 10:05:01;;;;;;;10.15;2.00;;;;;;;1.66;70.62;102115.22;5096020;28;20020;-79
2021/01/14 10:07:33;;;;;;;14.55;2.55;;;;;;;1.62;70.96;102119.19;5094860;28;20024;-79
2021/01/14 10:09:58;;;;;;;9.57;2.30;;;;;;;1.66;71.42;102124.09;5095937;28;20063;-78
2021/01/14 10:12:24;;;;;;;11.80;2.92;;;;;;;1.68;71.47;102114.09;5095246;28;20056;-79
2021/01/14 10:15:06;;;;;;;11.57;2.80;;;;;;;1.73;70.46;102117.19;5095962;28;20325;-79
2021/01/14 10:17:35;;;;;;;10.95;2.72;;;;;;;1.71;69.86;102121.84;5094590;28;20043;-79
2021/01/14 10:20:01;;;;;;;11.50;2.45;;;;;;;1.72;70.43;102126.19;5095904;28;20028;-79
2021/01/14 10:22:26;;;;;;;12.50;2.53;;;;;;;1.77;71.26;102125.75;5094296;28;20028;-79
2021/01/14 10:25:04;;;;;;;9.75;2.50;;;;;;;1.76;70.75;102116.91;5095687;28;20444;-79
2021/01/14 10:27:29;;;;;;;9.85;2.88;;;;;;;1.75;70.77;102112.53;5095787;28;20028;-79
2021/01/14 10:29:57;;;;;;;13.10;2.83;;;;;;;1.73;70.75;102111.84;5096749;28;20020;-79
2021/01/14 10:32:24;;;;;;;11.27;2.50;;;;;;;1.67;71.55;102104.44;5098146;28;20028;-79
2021/01/14 10:34:53;;;;;;;15.75;2.92;;;;;;;1.67;70.67;102104.44;5099182;28;20032;-79
2021/01/14 10:37:26;;;;;;;7.85;2.03;;;;;;;1.72;70.55;102106.66;5132653;27;20040;-79
2021/01/14 10:39:55;;;;;;;13.35;3.25;;;;;;;1.69;71.42;102093.63;5099342;28;20266;-78
2021/01/14 10:42:37;;;;;;;10.48;2.55;;;;;;;1.68;70.84;102108.78;5098331;28;20036;-79
2021/01/14 10:45:06;;;;;;;9.73;2.53;;;;;;;1.67;70.44;102099.09;5100401;28;20435;-79
2021/01/14 10:47:32;;;;;;;14.65;3.30;;;;;;;1.67;71.37;102100.94;5132113;27;20105;-79
2021/01/14 10:49:58;;;;;;;9.75;2.17;;;;;;;1.66;70.17;102099.22;5099118;28;20381;-79
2021/01/14 10:52:23;;;;;;;9.63;2.92;;;;;;;1.62;70.64;102100.50;5098057;28;20111;-79
2021/01/14 10:55:02;;;;;;;7.27;2.63;;;;;;;1.66;70.13;102100.09;5097709;28;20032;-79
2021/01/14 10:57:50;;;;;;;14.18;2.70;;;;;;;1.70;71.46;102093.47;5098005;28;20032;-79
2021/01/14 11:00:20;;;;;;;9.43;3.05;;;;;;;1.69;70.76;102091.78;5099057;28;20020;-78
2021/01/14 11:02:46;;;;;;;10.27;2.60;;;;;;;1.68;70.78;102090.09;5099041;28;20020;-80
2021/01/14 11:05:13;;;;;;;10.73;3.03;;;;;;;1.69;70.86;102077.59;5098633;28;20360;-79
2021/01/14 11:07:44;;;;;;;11.77;2.53;;;;;;;1.70;70.87;102081.94;5098942;28;20030;-79
2021/01/14 11:10:16;;;;;;;10.70;3.05;;;;;;;1.65;71.40;102093.03;5097671;28;20032;-79
2021/01/14 11:13:00;;;;;;;9.32;2.15;;;;;;;1.65;71.55;102077.03;5097795;28;20034;-79
2021/01/14 11:15:26;;;;;;;11.65;3.22;;;;;;;1.60;71.08;102073.97;5097248;28;20085;-79
2021/01/14 11:17:54;;;;;;;14.53;2.77;;;;;;;1.66;71.29;102068.09;5097563;28;20055;-79
2021/01/14 11:20:19;;;;;;;11.75;2.40;;;;;;;1.64;69.97;102056.69;5097531;28;20027;-80
2021/01/14 11:22:48;;;;;;;12.43;3.33;;;;;;;1.69;70.47;102069.59;5098693;28;20031;-79
2021/01/14 11:25:13;;;;;;;10.70;3.13;;;;;;;1.71;70.46;102057.84;5098231;28;20047;-77
2021/01/14 11:27:48;;;;;;;9.00;2.80;;;;;;;1.70;70.16;102058.78;5098513;28;20074;-79
2021/01/14 11:30:14;;;;;;;10.90;2.38;;;;;;;1.68;70.03;102049.28;5097479;28;20028;-78
2021/01/14 11:32:45;;;;;;;11.55;3.38;;;;;;;1.77;70.38;102059.91;5098449;28;20107;-79
2021/01/14 11:35:11;;;;;;;10.18;2.97;;;;;;;1.79;70.82;102057.94;5098170;28;20073;-78
2021/01/14 11:37:37;;;;;;;16.77;3.17;;;;;;;1.79;69.67;102057.94;5096946;28;20438;-77
2021/01/14 11:40:03;;;;;;;9.63;2.73;;;;;;;1.65;70.23;102047.72;5098057;28;20470;-79